IVLH weather

Inverell Hospital Helipad
Inverell, New South Wales, Australia

Public forecast

Using degrees Celsius for public forecast. Weather courtesy of forecast.io.

METAR (pilot weather report)

Closest report is Moree Airport, 69.1 nm (127.9 km) WNW. Retrieved 2019/02/21 06:35 UTC (0 seconds ago):

YMOR 210635Z AUTO 17016G26KT 9999 // BKN105 36/12 Q1005

TAF (pilot weather forecast)

Forecast is more than 12 hours old.

Closest forecast is Tamworth Airport, 80.1 nm (148.4 km) S. Retrieved 2019/02/20 00:36 UTC (1 day ago):

TAF TAF YSTW 202316Z 2100/2118 13014KT CAVOK FM210200 13014KT 9999 -SHRA SCT060 FM211000 14013KT 9999 SCT050 PROB30 INTER 2102/2110 VRB20G35KT 3000 TSRA SCT010 SCT060CB